Time,TemperatureF,DewpointF,PressureIn,WindDirection,WindDirectionDegrees,WindSpeedMPH,WindSpeedGustMPH,Humidity,HourlyPrecipIn,Conditions,Clouds,dailyrainin,SolarRadiationWatts/m^2,SoftwareType,DateUTC
2013-01-25 00:11:00,29.0,10.0,-100.00,WNW,297,5.0,14.0,44,0.00,,,0.00,0.000000,,2013-01-25 07:11:00,
2013-01-25 00:21:00,29.0,10.0,-100.00,WNW,297,5.0,14.0,44,0.00,,,0.00,0.000000,,2013-01-25 07:21:00,
2013-01-25 00:32:00,29.0,10.0,-100.00,WNW,297,5.0,14.0,44,0.00,,,0.00,0.000000,,2013-01-25 07:32:00,
2013-01-25 00:42:00,29.0,10.0,-100.00,WNW,297,5.0,14.0,44,0.00,,,0.00,0.000000,,2013-01-25 07:42:00,
2013-01-25 01:11:00,32.0,9.0,-100.00,WSW,244,12.0,20.0,38,0.00,,,0.00,0.000000,,2013-01-25 08:11:00,
2013-01-25 01:21:00,32.0,9.0,-100.00,WSW,244,12.0,20.0,38,0.00,,,0.00,0.000000,,2013-01-25 08:21:00,
2013-01-25 01:32:00,32.0,9.0,-100.00,WSW,244,12.0,20.0,38,0.00,,,0.00,0.000000,,2013-01-25 08:32:00,
2013-01-25 01:41:00,32.0,9.0,-100.00,WSW,244,12.0,20.0,38,0.00,,,0.00,0.000000,,2013-01-25 08:41:00,
2013-01-25 02:11:00,31.0,1.0,-100.00,WNW,296,3.0,15.0,27,0.00,,,0.00,0.000000,,2013-01-25 09:11:00,
2013-01-25 02:21:00,31.0,1.0,-100.00,WNW,296,3.0,15.0,27,0.00,,,0.00,0.000000,,2013-01-25 09:21:00,
2013-01-25 02:31:00,31.0,1.0,-100.00,WNW,296,3.0,15.0,27,0.00,,,0.00,0.000000,,2013-01-25 09:31:00,
2013-01-25 02:42:00,31.0,1.0,-100.00,WNW,296,3.0,15.0,27,0.00,,,0.00,0.000000,,2013-01-25 09:42:00,
2013-01-25 03:12:00,33.0,-2.0,-100.00,NNW,331,13.0,18.0,22,0.00,,,0.00,0.000000,,2013-01-25 10:12:00,
2013-01-25 03:21:00,33.0,-2.0,-100.00,NNW,331,13.0,18.0,22,0.00,,,0.00,0.000000,,2013-01-25 10:21:00,
2013-01-25 03:32:00,33.0,-2.0,-100.00,NNW,331,13.0,18.0,22,0.00,,,0.00,0.000000,,2013-01-25 10:32:00,
2013-01-25 03:42:00,33.0,-2.0,-100.00,NNW,331,13.0,18.0,22,0.00,,,0.00,0.000000,,2013-01-25 10:42:00,
2013-01-25 04:11:00,33.0,-4.0,-100.00,NW,314,7.0,21.0,20,0.00,,,0.00,0.000000,,2013-01-25 11:11:00,
2013-01-25 04:22:00,33.0,-4.0,-100.00,NW,314,7.0,21.0,20,0.00,,,0.00,0.000000,,2013-01-25 11:22:00,
2013-01-25 04:32:00,33.0,-4.0,-100.00,NW,314,7.0,21.0,20,0.00,,,0.00,0.000000,,2013-01-25 11:32:00,
2013-01-25 04:42:00,33.0,-4.0,-100.00,NW,314,7.0,21.0,20,0.00,,,0.00,0.000000,,2013-01-25 11:42:00,
2013-01-25 05:12:00,28.0,6.0,-100.00,NW,312,3.0,8.0,39,0.00,,,0.00,0.000000,,2013-01-25 12:12:00,
2013-01-25 05:22:00,28.0,6.0,-100.00,NW,312,3.0,8.0,39,0.00,,,0.00,0.000000,,2013-01-25 12:22:00,
2013-01-25 05:32:00,28.0,6.0,-100.00,NW,312,3.0,8.0,39,0.00,,,0.00,0.000000,,2013-01-25 12:32:00,
2013-01-25 05:42:00,28.0,6.0,-100.00,NW,312,3.0,8.0,39,0.00,,,0.00,0.000000,,2013-01-25 12:42:00,
2013-01-25 06:12:00,30.0,2.0,-100.00,East,86,2.0,6.0,30,0.00,,,0.00,0.000000,,2013-01-25 13:12:00,
2013-01-25 06:22:00,30.0,2.0,-100.00,East,86,2.0,6.0,30,0.00,,,0.00,0.000000,,2013-01-25 13:22:00,
2013-01-25 06:32:00,30.0,2.0,-100.00,East,86,2.0,6.0,30,0.00,,,0.00,0.000000,,2013-01-25 13:32:00,
2013-01-25 06:42:00,30.0,2.0,-100.00,East,86,2.0,6.0,30,0.00,,,0.00,0.000000,,2013-01-25 13:42:00,
2013-01-25 07:12:00,27.0,-1.0,-100.00,NNW,331,3.0,5.0,29,0.00,,,0.00,0.000000,,2013-01-25 14:12:00,
2013-01-25 07:23:00,27.0,-1.0,-100.00,NNW,331,3.0,5.0,29,0.00,,,0.00,0.000000,,2013-01-25 14:23:00,
2013-01-25 07:32:00,27.0,-1.0,-100.00,NNW,331,3.0,5.0,29,0.00,,,0.00,0.000000,,2013-01-25 14:32:00,
2013-01-25 07:42:00,27.0,-1.0,-100.00,NNW,331,3.0,5.0,29,0.00,,,0.00,0.000000,,2013-01-25 14:42:00,
2013-01-25 08:12:00,29.0,1.0,-100.00,WNW,302,2.0,5.0,29,0.00,,,0.00,4.000000,,2013-01-25 15:12:00,
2013-01-25 08:22:00,29.0,1.0,-100.00,WNW,302,2.0,5.0,29,0.00,,,0.00,4.000000,,2013-01-25 15:22:00,
2013-01-25 08:32:00,29.0,1.0,-100.00,WNW,302,2.0,5.0,29,0.00,,,0.00,4.000000,,2013-01-25 15:32:00,
2013-01-25 08:42:00,29.0,1.0,-100.00,WNW,302,2.0,5.0,29,0.00,,,0.00,4.000000,,2013-01-25 15:42:00,
2013-01-25 09:12:00,31.0,-1.0,-100.00,SW,229,2.0,5.0,25,0.00,,,0.00,54.000000,,2013-01-25 16:12:00,
2013-01-25 09:22:00,31.0,-1.0,-100.00,SW,229,2.0,5.0,25,0.00,,,0.00,54.000000,,2013-01-25 16:22:00,
2013-01-25 09:32:00,31.0,-1.0,-100.00,SW,229,2.0,5.0,25,0.00,,,0.00,54.000000,,2013-01-25 16:32:00,
2013-01-25 09:42:00,31.0,-1.0,-100.00,SW,229,2.0,5.0,25,0.00,,,0.00,54.000000,,2013-01-25 16:42:00,
2013-01-25 10:12:00,35.0,2.0,-100.00,NNE,21,4.0,5.0,24,0.00,,,0.00,225.000000,,2013-01-25 17:12:00,
2013-01-25 10:22:00,35.0,2.0,-100.00,NNE,21,4.0,5.0,24,0.00,,,0.00,225.000000,,2013-01-25 17:22:00,
2013-01-25 10:32:00,35.0,2.0,-100.00,NNE,21,4.0,5.0,24,0.00,,,0.00,225.000000,,2013-01-25 17:32:00,
2013-01-25 10:43:00,35.0,2.0,-100.00,NNE,21,4.0,5.0,24,0.00,,,0.00,225.000000,,2013-01-25 17:43:00,
2013-01-25 11:03:00,41.0,4.0,-100.00,ENE,58,3.0,6.0,21,0.00,,,0.00,389.000000,,2013-01-25 18:03:00,
2013-01-25 11:12:00,41.0,4.0,-100.00,ENE,58,3.0,6.0,21,0.00,,,0.00,389.000000,,2013-01-25 18:12:00,
2013-01-25 11:23:00,41.0,4.0,-100.00,ENE,58,3.0,6.0,21,0.00,,,0.00,389.000000,,2013-01-25 18:23:00,
2013-01-25 11:33:00,41.0,4.0,-100.00,ENE,58,3.0,6.0,21,0.00,,,0.00,389.000000,,2013-01-25 18:33:00,
2013-01-25 11:42:00,41.0,4.0,-100.00,ENE,58,3.0,6.0,21,0.00,,,0.00,389.000000,,2013-01-25 18:42:00,
2013-01-25 12:03:00,39.0,3.0,-100.00,SE,125,4.0,6.0,22,0.00,,,0.00,356.000000,,2013-01-25 19:03:00,
2013-01-25 12:12:00,39.0,3.0,-100.00,SE,125,4.0,6.0,22,0.00,,,0.00,356.000000,,2013-01-25 19:12:00,
2013-01-25 12:22:00,39.0,3.0,-100.00,SE,125,4.0,6.0,22,0.00,,,0.00,356.000000,,2013-01-25 19:22:00,
2013-01-25 12:32:00,39.0,3.0,-100.00,SE,125,4.0,6.0,22,0.00,,,0.00,356.000000,,2013-01-25 19:32:00,
2013-01-25 12:42:00,39.0,3.0,-100.00,SE,125,4.0,6.0,22,0.00,,,0.00,356.000000,,2013-01-25 19:42:00,
2013-01-25 13:12:00,41.0,5.0,-100.00,ENE,59,4.0,5.0,22,0.00,,,0.00,417.000000,,2013-01-25 20:12:00,
2013-01-25 13:22:00,41.0,5.0,-100.00,ENE,59,4.0,5.0,22,0.00,,,0.00,417.000000,,2013-01-25 20:22:00,
2013-01-25 13:32:00,41.0,5.0,-100.00,ENE,59,4.0,5.0,22,0.00,,,0.00,417.000000,,2013-01-25 20:32:00,
2013-01-25 13:42:00,41.0,5.0,-100.00,ENE,59,4.0,5.0,22,0.00,,,0.00,417.000000,,2013-01-25 20:42:00,
2013-01-25 14:12:00,41.0,9.0,-100.00,NE,45,3.0,5.0,26,0.00,,,0.00,334.000000,,2013-01-25 21:12:00,
2013-01-25 14:23:00,41.0,9.0,-100.00,NE,45,3.0,5.0,26,0.00,,,0.00,334.000000,,2013-01-25 21:23:00,
2013-01-25 14:33:00,41.0,9.0,-100.00,NE,45,3.0,5.0,26,0.00,,,0.00,334.000000,,2013-01-25 21:33:00,
2013-01-25 14:42:00,41.0,9.0,-100.00,NE,45,3.0,5.0,26,0.00,,,0.00,334.000000,,2013-01-25 21:42:00,
2013-01-25 15:12:00,41.0,8.0,-100.00,ENE,71,5.0,6.0,25,0.00,,,0.00,248.000000,,2013-01-25 22:12:00,
2013-01-25 15:22:00,41.0,8.0,-100.00,ENE,71,5.0,6.0,25,0.00,,,0.00,248.000000,,2013-01-25 22:22:00,
2013-01-25 15:33:00,41.0,8.0,-100.00,ENE,71,5.0,6.0,25,0.00,,,0.00,248.000000,,2013-01-25 22:33:00,
2013-01-25 15:42:00,41.0,8.0,-100.00,ENE,71,5.0,6.0,25,0.00,,,0.00,248.000000,,2013-01-25 22:42:00,
2013-01-25 16:12:00,37.0,8.0,-100.00,ESE,112,3.0,5.0,29,0.00,,,0.00,223.000000,,2013-01-25 23:12:00,
2013-01-25 16:22:00,37.0,8.0,-100.00,ESE,112,3.0,5.0,29,0.00,,,0.00,223.000000,,2013-01-25 23:22:00,
2013-01-25 16:32:00,37.0,8.0,-100.00,ESE,112,3.0,5.0,29,0.00,,,0.00,223.000000,,2013-01-25 23:32:00,
2013-01-25 16:42:00,37.0,8.0,-100.00,ESE,112,3.0,5.0,29,0.00,,,0.00,223.000000,,2013-01-25 23:42:00,
2013-01-25 17:11:00,35.0,7.0,-100.00,NW,322,1.0,4.0,30,0.00,,,0.00,75.000000,,2013-01-26 00:11:00,
2013-01-25 17:22:00,35.0,7.0,-100.00,NW,322,1.0,4.0,30,0.00,,,0.00,75.000000,,2013-01-26 00:22:00,
2013-01-25 17:32:00,35.0,7.0,-100.00,NW,322,1.0,4.0,30,0.00,,,0.00,75.000000,,2013-01-26 00:32:00,
2013-01-25 17:42:00,35.0,7.0,-100.00,NW,322,1.0,4.0,30,0.00,,,0.00,75.000000,,2013-01-26 00:42:00,
2013-01-25 18:02:00,32.0,9.0,-100.00,SSW,209,2.0,4.0,37,0.00,,,0.00,6.000000,,2013-01-26 01:02:00,
2013-01-25 18:11:00,32.0,9.0,-100.00,SSW,209,2.0,4.0,37,0.00,,,0.00,6.000000,,2013-01-26 01:11:00,
2013-01-25 18:22:00,32.0,9.0,-100.00,SSW,209,2.0,4.0,37,0.00,,,0.00,6.000000,,2013-01-26 01:22:00,
2013-01-25 18:32:00,32.0,9.0,-100.00,SSW,209,2.0,4.0,37,0.00,,,0.00,6.000000,,2013-01-26 01:32:00,
2013-01-25 18:42:00,32.0,9.0,-100.00,SSW,209,2.0,4.0,37,0.00,,,0.00,6.000000,,2013-01-26 01:42:00,
2013-01-25 19:11:00,31.0,11.0,-100.00,NW,324,3.0,4.0,42,0.00,,,0.00,0.000000,,2013-01-26 02:11:00,
2013-01-25 19:22:00,31.0,11.0,-100.00,NW,324,3.0,4.0,42,0.00,,,0.00,0.000000,,2013-01-26 02:22:00,
2013-01-25 19:32:00,31.0,11.0,-100.00,NW,324,3.0,4.0,42,0.00,,,0.00,0.000000,,2013-01-26 02:32:00,
2013-01-25 19:42:00,31.0,11.0,-100.00,NW,324,3.0,4.0,42,0.00,,,0.00,0.000000,,2013-01-26 02:42:00,
2013-01-25 20:11:00,31.0,12.0,-100.00,NW,305,2.0,3.0,45,0.00,,,0.00,0.000000,,2013-01-26 03:11:00,
2013-01-25 20:22:00,31.0,12.0,-100.00,NW,305,2.0,3.0,45,0.00,,,0.00,0.000000,,2013-01-26 03:22:00,
2013-01-25 20:31:00,31.0,12.0,-100.00,NW,305,2.0,3.0,45,0.00,,,0.00,0.000000,,2013-01-26 03:31:00,
2013-01-25 20:42:00,31.0,12.0,-100.00,NW,305,2.0,3.0,45,0.00,,,0.00,0.000000,,2013-01-26 03:42:00,
2013-01-25 21:12:00,29.0,9.0,-100.00,West,274,2.0,5.0,42,0.00,,,0.00,0.000000,,2013-01-26 04:12:00,
2013-01-25 21:21:00,29.0,9.0,-100.00,West,274,2.0,5.0,42,0.00,,,0.00,0.000000,,2013-01-26 04:21:00,
2013-01-25 21:32:00,29.0,9.0,-100.00,West,274,2.0,5.0,42,0.00,,,0.00,0.000000,,2013-01-26 04:32:00,
2013-01-25 21:42:00,29.0,9.0,-100.00,West,274,2.0,5.0,42,0.00,,,0.00,0.000000,,2013-01-26 04:42:00,
2013-01-25 22:12:00,31.0,14.0,-100.00,West,266,2.0,5.0,48,0.00,,,0.00,0.000000,,2013-01-26 05:12:00,
2013-01-25 22:23:00,31.0,14.0,-100.00,West,266,2.0,5.0,48,0.00,,,0.00,0.000000,,2013-01-26 05:23:00,
2013-01-25 22:33:00,31.0,14.0,-100.00,West,266,2.0,5.0,48,0.00,,,0.00,0.000000,,2013-01-26 05:33:00,
2013-01-25 22:41:00,31.0,14.0,-100.00,West,266,2.0,5.0,48,0.00,,,0.00,0.000000,,2013-01-26 05:41:00,
2013-01-25 23:12:00,32.0,12.0,-100.00,NW,319,4.0,7.0,42,0.00,,,0.00,0.000000,,2013-01-26 06:12:00,
2013-01-25 23:21:00,32.0,12.0,-100.00,NW,319,4.0,7.0,42,0.00,,,0.00,0.000000,,2013-01-26 06:21:00,
2013-01-25 23:32:00,32.0,12.0,-100.00,NW,319,4.0,7.0,42,0.00,,,0.00,0.000000,,2013-01-26 06:32:00,
2013-01-25 23:41:00,32.0,12.0,-100.00,NW,319,4.0,7.0,42,0.00,,,0.00,0.000000,,2013-01-26 06:41:00,